Time;durP1;ratioP1;P1;durP2;ratioP2;P2;SDS_P1;SDS_P2;PMS_P1;PMS_P2;Temp;Humidity;BMP_temperature;BMP_pressure;BME280_temperature;BME280_humidity;BME280_pressure;Samples;Min_cycle;Max_cycle;Signal;HPM_P1;HPM_P2
2021/11/08 00:01:18;;;;;;;1.05;0.20;;;;;;;;;;5009040;28;20489;-74
2021/11/08 00:03:46;;;;;;;24.38;1.08;;;;;;;;;;5008972;28;20477;-74
2021/11/08 00:06:14;;;;;;;0.00;0.00;;;;;;;;;;5009303;28;20044;-74
2021/11/08 00:08:41;;;;;;;0.00;0.00;;;;;;;;;;5009543;28;20045;-74
2021/11/08 00:11:07;;;;;;;0.00;0.00;;;;;;;;;;5006671;28;20021;-74
2021/11/08 00:13:33;;;;;;;0.22;0.22;;;;;;;;;;5009005;28;20541;-74
2021/11/08 00:16:27;;;;;;;0.10;0.10;;;;;;;;;;5009584;28;20026;-75
2021/11/08 00:21:43;;;;;;;0.25;0.25;;;;;;;;;;5007901;28;20107;-74
2021/11/08 00:24:12;;;;;;;0.32;0.32;;;;;;;;;;5008551;28;20033;-75
2021/11/08 00:26:38;;;;;;;1.92;1.55;;;;;;;;;;5009438;28;20034;-74
2021/11/08 00:29:04;;;;;;;0.63;0.63;;;;;;;;;;5007558;28;20014;-74
2021/11/08 00:31:30;;;;;;;0.08;0.08;;;;;;;;;;5008989;28;20358;-74
2021/11/08 00:33:56;;;;;;;0.10;0.10;;;;;;;;;;5007925;28;20388;-74
2021/11/08 00:36:22;;;;;;;1.75;0.68;;;;;;;;;;5008588;28;20025;-74
2021/11/08 00:38:50;;;;;;;0.10;0.10;;;;;;;;;;5008783;28;20037;-74
2021/11/08 00:41:16;;;;;;;0.35;0.13;;;;;;;;;;5008932;28;20034;-74
2021/11/08 00:43:42;;;;;;;1.55;1.23;;;;;;;;;;5008956;28;20037;-74
2021/11/08 00:46:08;;;;;;;0.20;0.15;;;;;;;;;;5008436;28;20040;-74
2021/11/08 00:48:36;;;;;;;7.72;2.63;;;;;;;;;;5008409;28;20022;-74
2021/11/08 00:51:03;;;;;;;0.30;0.25;;;;;;;;;;5009067;28;20032;-74
2021/11/08 00:53:29;;;;;;;0.00;0.00;;;;;;;;;;5009042;28;20037;-75
2021/11/08 00:55:57;;;;;;;0.52;0.52;;;;;;;;;;5008691;28;20034;-74
2021/11/08 00:58:38;;;;;;;1.15;0.43;;;;;;;;;;5008336;28;20378;-74
2021/11/08 01:01:06;;;;;;;9.52;0.98;;;;;;;;;;5008745;28;20085;-74
2021/11/08 01:03:34;;;;;;;0.08;0.08;;;;;;;;;;5008641;28;20489;-74
2021/11/08 01:06:00;;;;;;;0.13;0.13;;;;;;;;;;5007880;28;20041;-74
2021/11/08 01:08:26;;;;;;;0.55;0.30;;;;;;;;;;5009218;28;20033;-74
2021/11/08 01:10:52;;;;;;;0.17;0.17;;;;;;;;;;5009552;28;20404;-75
2021/11/08 01:13:18;;;;;;;0.00;0.00;;;;;;;;;;5007461;28;20034;-75
2021/11/08 01:15:44;;;;;;;0.00;0.00;;;;;;;;;;5007511;28;20231;-72
2021/11/08 01:18:10;;;;;;;0.00;0.00;;;;;;;;;;5008629;28;20064;-72
2021/11/08 01:20:36;;;;;;;0.15;0.15;;;;;;;;;;5008959;28;20058;-72
2021/11/08 01:23:04;;;;;;;0.95;0.55;;;;;;;;;;5007129;28;20131;-72
2021/11/08 01:25:34;;;;;;;2.28;0.63;;;;;;;;;;5007953;28;20054;-73
2021/11/08 01:28:03;;;;;;;0.05;0.05;;;;;;;;;;5007865;28;20324;-72
2021/11/08 01:30:29;;;;;;;0.00;0.00;;;;;;;;;;5007886;28;20017;-72
2021/11/08 01:35:57;;;;;;;45.08;1.55;;;;;;;;;;5008138;28;20026;-73
2021/11/08 01:40:42;;;;;;;1.38;1.27;;;;;;;;;;5008170;28;20235;-72
2021/11/08 01:43:10;;;;;;;0.00;0.00;;;;;;;;;;5007362;28;20029;-72
2021/11/08 01:45:37;;;;;;;0.00;0.00;;;;;;;;;;5007937;28;20025;-73
2021/11/08 01:48:03;;;;;;;0.00;0.00;;;;;;;;;;5007424;28;20018;-73
2021/11/08 01:50:29;;;;;;;1.77;1.45;;;;;;;;;;5008876;28;20080;-72
2021/11/08 01:52:56;;;;;;;0.00;0.00;;;;;;;;;;5007837;28;20389;-73
2021/11/08 01:55:23;;;;;;;0.20;0.20;;;;;;;;;;5008457;28;20381;-72
2021/11/08 01:57:49;;;;;;;2.45;0.70;;;;;;;;;;5007289;28;20057;-73
2021/11/08 02:00:16;;;;;;;0.10;0.10;;;;;;;;;;5007992;28;20064;-72
2021/11/08 02:02:42;;;;;;;0.00;0.00;;;;;;;;;;5018215;28;20105;-72
2021/11/08 02:05:09;;;;;;;0.00;0.00;;;;;;;;;;5007624;28;20041;-72
2021/11/08 02:07:35;;;;;;;0.22;0.22;;;;;;;;;;5008310;28;20496;-73
2021/11/08 02:10:03;;;;;;;1.70;1.17;;;;;;;;;;5007058;28;20026;-73
2021/11/08 02:12:29;;;;;;;0.00;0.00;;;;;;;;;;5008292;28;20034;-73
2021/11/08 02:14:55;;;;;;;28.08;0.57;;;;;;;;;;5007469;28;20025;-73
2021/11/08 02:17:21;;;;;;;0.00;0.00;;;;;;;;;;5016833;28;20034;-73
2021/11/08 02:19:47;;;;;;;0.15;0.08;;;;;;;;;;5011038;28;20030;-72
2021/11/08 02:22:13;;;;;;;2.65;1.08;;;;;;;;;;5008014;28;20119;-73
2021/11/08 02:24:42;;;;;;;0.50;0.50;;;;;;;;;;5008396;28;20058;-72
2021/11/08 02:27:09;;;;;;;0.17;0.13;;;;;;;;;;5008589;28;20018;-73
2021/11/08 02:29:35;;;;;;;0.20;0.20;;;;;;;;;;5007292;28;20499;-72
2021/11/08 02:32:03;;;;;;;0.73;0.32;;;;;;;;;;5007108;28;20113;-72
2021/11/08 02:34:29;;;;;;;0.52;0.52;;;;;;;;;;5007879;28;20084;-72
2021/11/08 02:36:55;;;;;;;0.20;0.20;;;;;;;;;;5007752;28;20407;-72
2021/11/08 02:39:28;;;;;;;2.30;0.22;;;;;;;;;;5006625;28;20527;-73
2021/11/08 02:41:54;;;;;;;0.20;0.20;;;;;;;;;;5006989;28;20038;-72
2021/11/08 02:44:20;;;;;;;0.30;0.30;;;;;;;;;;5007094;28;20042;-73
2021/11/08 02:46:46;;;;;;;0.00;0.00;;;;;;;;;;5007477;28;20080;-73
2021/11/08 02:49:13;;;;;;;0.17;0.17;;;;;;;;;;5002661;28;20053;-73
2021/11/08 02:51:47;;;;;;;0.10;0.10;;;;;;;;;;5002706;28;20038;-73
2021/11/08 02:54:24;;;;;;;0.20;0.20;;;;;;;;;;5010340;28;20029;-73
2021/11/08 02:56:51;;;;;;;0.00;0.00;;;;;;;;;;5010966;28;20042;-73
2021/11/08 02:59:16;;;;;;;0.00;0.00;;;;;;;;;;5010054;28;20037;-72
2021/11/08 03:01:46;;;;;;;0.10;0.10;;;;;;;;;;5010307;28;20080;-73
2021/11/08 03:04:16;;;;;;;0.10;0.10;;;;;;;;;;5010630;28;20030;-73
2021/11/08 03:06:42;;;;;;;1.25;0.80;;;;;;;;;;5009979;28;20026;-73
2021/11/08 03:09:32;;;;;;;4.13;1.10;;;;;;;;;;5009902;28;20029;-73
2021/11/08 03:12:00;;;;;;;0.10;0.10;;;;;;;;;;5010011;28;20497;-74
2021/11/08 03:14:29;;;;;;;0.00;0.00;;;;;;;;;;5010013;28;20099;-73
2021/11/08 03:16:58;;;;;;;4.10;2.40;;;;;;;;;;5010705;28;20156;-73
2021/11/08 03:19:29;;;;;;;0.57;0.57;;;;;;;;;;5009041;28;20281;-73
2021/11/08 03:21:57;;;;;;;;;;;;;;;;;;5010090;28;20049;-73
2021/11/08 03:24:37;;;;;;;0.10;0.10;;;;;;;;;;5010072;28;19920;-72
2021/11/08 03:27:18;;;;;;;0.10;0.10;;;;;;;;;;5009173;28;20092;-73
2021/11/08 03:29:44;;;;;;;0.05;0.05;;;;;;;;;;5009464;28;20222;-73
2021/11/08 03:32:13;;;;;;;0.45;0.45;;;;;;;;;;5007309;28;20033;-73
2021/11/08 03:34:46;;;;;;;0.25;0.25;;;;;;;;;;5008938;28;20038;-74
2021/11/08 03:37:13;;;;;;;0.00;0.00;;;;;;;;;;5007206;28;20488;-74
2021/11/08 03:39:39;;;;;;;0.00;0.00;;;;;;;;;;5009317;28;20277;-74
2021/11/08 03:42:04;;;;;;;0.00;0.00;;;;;;;;;;5008757;28;20145;-74
2021/11/08 03:44:31;;;;;;;0.35;0.10;;;;;;;;;;5009443;28;20030;-75
2021/11/08 03:46:57;;;;;;;0.03;0.03;;;;;;;;;;5009173;28;20303;-75
2021/11/08 03:49:23;;;;;;;1.23;0.73;;;;;;;;;;5009271;28;20126;-75
2021/11/08 03:51:49;;;;;;;0.00;0.00;;;;;;;;;;5009656;28;20108;-74
2021/11/08 03:54:15;;;;;;;0.00;0.00;;;;;;;;;;5009919;28;20430;-75
2021/11/08 03:56:41;;;;;;;0.10;0.10;;;;;;;;;;5009980;28;20029;-74
2021/11/08 03:59:07;;;;;;;0.00;0.00;;;;;;;;;;5009932;28;20512;-74
2021/11/08 04:01:36;;;;;;;0.05;0.05;;;;;;;;;;5009950;28;20040;-74
2021/11/08 04:04:03;;;;;;;1.50;1.00;;;;;;;;;;5006132;28;20030;-74
2021/11/08 04:06:29;;;;;;;0.05;0.05;;;;;;;;;;5017554;28;20041;-75
2021/11/08 04:08:55;;;;;;;0.32;0.32;;;;;;;;;;5009664;28;20018;-75
2021/11/08 04:11:21;;;;;;;0.00;0.00;;;;;;;;;;5009684;28;20073;-74
2021/11/08 04:13:47;;;;;;;0.65;0.65;;;;;;;;;;5010100;28;20026;-74
2021/11/08 04:16:15;;;;;;;0.00;0.00;;;;;;;;;;5009970;28;20107;-74
2021/11/08 04:18:47;;;;;;;0.20;0.20;;;;;;;;;;5010050;28;20049;-74
2021/11/08 04:21:13;;;;;;;0.80;0.70;;;;;;;;;;5009907;28;20049;-73
2021/11/08 04:23:39;;;;;;;0.00;0.00;;;;;;;;;;5009601;28;20022;-74
2021/11/08 04:26:06;;;;;;;0.00;0.00;;;;;;;;;;5009734;28;20080;-74
2021/11/08 04:28:34;;;;;;;0.00;0.00;;;;;;;;;;5009166;28;20036;-74
2021/11/08 04:31:00;;;;;;;0.25;0.25;;;;;;;;;;5008968;28;20109;-74
2021/11/08 04:33:32;;;;;;;0.10;0.10;;;;;;;;;;5009598;28;20030;-74
2021/11/08 04:36:11;;;;;;;0.10;0.10;;;;;;;;;;5009695;28;20025;-74
2021/11/08 04:38:47;;;;;;;1.20;0.85;;;;;;;;;;5008970;28;20259;-74
2021/11/08 04:41:39;;;;;;;0.88;0.85;;;;;;;;;;5004025;28;20026;-74
2021/11/08 04:44:36;;;;;;;;;;;;;;;;;;5008859;28;20053;-74
2021/11/08 04:47:17;;;;;;;;;;;;;;;;;;5006626;28;19917;-74
2021/11/08 04:49:52;;;;;;;0.00;0.00;;;;;;;;;;5008545;28;20364;-74
2021/11/08 05:22:27;;;;;;;0.00;0.00;;;;;;;;;;5007605;28;20084;-75
2021/11/08 05:30:08;;;;;;;0.00;0.00;;;;;;;;;;5006776;28;20088;-74
2021/11/08 05:32:36;;;;;;;0.00;0.00;;;;;;;;;;5010193;28;20424;-74
2021/11/08 05:35:03;;;;;;;2.90;0.80;;;;;;;;;;5005051;28;20662;-70
2021/11/08 05:37:29;;;;;;;0.00;0.00;;;;;;;;;;5007517;28;20401;-73
2021/11/08 05:40:00;;;;;;;0.00;0.00;;;;;;;;;;5007261;28;20018;-70
2021/11/08 05:42:26;;;;;;;0.20;0.20;;;;;;;;;;5006261;28;20033;-71
2021/11/08 05:44:53;;;;;;;0.32;0.32;;;;;;;;;;5006723;28;20064;-70
2021/11/08 05:47:19;;;;;;;0.10;0.10;;;;;;;;;;5006520;28;20030;-70
2021/11/08 05:49:45;;;;;;;0.00;0.00;;;;;;;;;;5006445;28;20026;-69
2021/11/08 05:52:12;;;;;;;0.10;0.10;;;;;;;;;;5012986;28;20033;-69
2021/11/08 05:54:38;;;;;;;0.00;0.00;;;;;;;;;;5006007;28;20083;-71
2021/11/08 06:51:40;;;;;;;8.02;1.27;;;;;;;;;;5011570;28;20477;-69
2021/11/08 06:54:06;;;;;;;1.27;0.30;;;;;;;;;;5011718;28;20049;-73
2021/11/08 06:56:38;;;;;;;0.55;0.35;;;;;;;;;;5012937;28;20138;-70
2021/11/08 06:59:04;;;;;;;0.00;0.00;;;;;;;;;;5008967;28;20041;-70
2021/11/08 07:01:31;;;;;;;0.00;0.00;;;;;;;;;;5010990;28;20029;-70
2021/11/08 07:03:57;;;;;;;0.22;0.22;;;;;;;;;;5011235;28;20413;-70
2021/11/08 07:06:23;;;;;;;5.18;1.38;;;;;;;;;;5010226;28;20528;-70
2021/11/08 07:08:49;;;;;;;3.50;1.77;;;;;;;;;;5010942;28;20065;-70
2021/11/08 07:11:16;;;;;;;0.10;0.10;;;;;;;;;;5010053;28;20539;-70
2021/11/08 07:13:43;;;;;;;0.60;0.60;;;;;;;;;;5011284;28;20025;-74
2021/11/08 07:16:09;;;;;;;0.00;0.00;;;;;;;;;;5010609;28;20040;-69
2021/11/08 07:18:35;;;;;;;0.40;0.20;;;;;;;;;;5007476;28;20026;-71
2021/11/08 07:21:01;;;;;;;0.25;0.25;;;;;;;;;;5020365;28;20045;-71
2021/11/08 07:23:27;;;;;;;0.32;0.30;;;;;;;;;;5009161;28;20038;-71
2021/11/08 07:25:52;;;;;;;0.82;0.80;;;;;;;;;;5004682;28;20034;-70
2021/11/08 07:28:19;;;;;;;0.03;0.03;;;;;;;;;;5006486;28;20030;-70
2021/11/08 07:30:47;;;;;;;1.38;0.80;;;;;;;;;;5007092;28;20030;-71
2021/11/08 07:33:13;;;;;;;0.85;0.82;;;;;;;;;;5008417;28;20058;-71
2021/11/08 07:35:39;;;;;;;0.22;0.22;;;;;;;;;;5008717;28;20054;-71
2021/11/08 07:38:05;;;;;;;0.00;0.00;;;;;;;;;;5007077;28;20104;-71
2021/11/08 07:40:30;;;;;;;0.10;0.10;;;;;;;;;;5007842;28;20057;-71
2021/11/08 07:42:56;;;;;;;0.08;0.08;;;;;;;;;;5006982;28;20057;-69
2021/11/08 07:45:24;;;;;;;0.00;0.00;;;;;;;;;;5008007;28;20455;-70
2021/11/08 07:47:50;;;;;;;0.65;0.63;;;;;;;;;;5007091;28;20053;-70
2021/11/08 07:50:16;;;;;;;0.20;0.20;;;;;;;;;;5008222;28;20520;-70
2021/11/08 07:52:42;;;;;;;2.28;0.65;;;;;;;;;;5009350;28;20034;-70
2021/11/08 07:55:08;;;;;;;4.13;1.27;;;;;;;;;;5010264;28;20050;-73
2021/11/08 07:57:33;;;;;;;0.17;0.17;;;;;;;;;;5008657;28;20054;-74
2021/11/08 07:59:59;;;;;;;1.20;0.57;;;;;;;;;;5008755;28;20030;-74
2021/11/08 08:02:25;;;;;;;1.75;1.17;;;;;;;;;;5009554;28;20476;-75
2021/11/08 08:05:10;;;;;;;0.00;0.00;;;;;;;;;;5009439;28;20019;-70
2021/11/08 08:07:36;;;;;;;0.00;0.00;;;;;;;;;;5009922;28;20034;-70
2021/11/08 08:10:03;;;;;;;1.13;0.82;;;;;;;;;;5008666;28;20109;-70
2021/11/08 08:12:29;;;;;;;0.20;0.20;;;;;;;;;;5007283;28;20032;-70
2021/11/08 08:14:55;;;;;;;0.00;0.00;;;;;;;;;;5010359;28;20108;-70
2021/11/08 08:17:21;;;;;;;0.63;0.60;;;;;;;;;;5009927;28;20194;-71
2021/11/08 08:19:47;;;;;;;0.88;0.88;;;;;;;;;;5009914;28;20389;-69
2021/11/08 08:22:13;;;;;;;0.03;0.03;;;;;;;;;;5009794;28;20025;-70
2021/11/08 08:24:39;;;;;;;0.38;0.35;;;;;;;;;;5009857;28;20022;-69
2021/11/08 08:27:05;;;;;;;0.95;0.85;;;;;;;;;;5009427;28;20397;-69
2021/11/08 08:29:32;;;;;;;0.30;0.30;;;;;;;;;;5009671;28;20029;-69
2021/11/08 08:31:58;;;;;;;0.45;0.45;;;;;;;;;;5009532;28;20022;-70
2021/11/08 08:34:25;;;;;;;0.45;0.38;;;;;;;;;;5008665;28;20503;-68
2021/11/08 08:36:53;;;;;;;1.15;0.90;;;;;;;;;;5009446;28;20041;-69
2021/11/08 08:39:20;;;;;;;2.55;0.47;;;;;;;;;;5009702;28;20865;-69
2021/11/08 08:41:47;;;;;;;0.10;0.10;;;;;;;;;;5009171;28;20030;-70
2021/11/08 08:44:14;;;;;;;0.03;0.03;;;;;;;;;;5008950;28;20081;-71
2021/11/08 08:46:44;;;;;;;0.85;0.32;;;;;;;;;;5008380;28;20064;-69
2021/11/08 08:49:11;;;;;;;0.00;0.00;;;;;;;;;;5008770;28;20514;-69
2021/11/08 08:51:38;;;;;;;0.17;0.17;;;;;;;;;;5008530;28;20037;-69
2021/11/08 08:54:04;;;;;;;0.00;0.00;;;;;;;;;;5008929;28;20117;-70
2021/11/08 08:56:30;;;;;;;0.05;0.05;;;;;;;;;;5008744;28;20076;-70
2021/11/08 08:58:56;;;;;;;0.90;0.70;;;;;;;;;;5009103;28;20088;-69
2021/11/08 09:01:23;;;;;;;1.17;1.05;;;;;;;;;;5008216;28;20033;-71
2021/11/08 09:03:50;;;;;;;0.10;0.10;;;;;;;;;;5009000;28;20034;-69
2021/11/08 09:06:15;;;;;;;0.30;0.20;;;;;;;;;;5009360;28;20539;-68
2021/11/08 09:08:42;;;;;;;0.00;0.00;;;;;;;;;;5008952;28;20053;-69
2021/11/08 09:11:08;;;;;;;0.38;0.38;;;;;;;;;;5009101;28;20042;-69
2021/11/08 09:13:34;;;;;;;0.00;0.00;;;;;;;;;;5008595;28;20021;-70
2021/11/08 09:16:00;;;;;;;0.05;0.05;;;;;;;;;;5008610;28;20033;-69
2021/11/08 09:18:26;;;;;;;0.10;0.10;;;;;;;;;;5008473;28;20054;-69
2021/11/08 09:20:52;;;;;;;0.00;0.00;;;;;;;;;;5008034;28;20073;-71
2021/11/08 09:23:18;;;;;;;0.35;0.35;;;;;;;;;;5008487;28;20060;-69
2021/11/08 09:25:44;;;;;;;0.00;0.00;;;;;;;;;;5008087;28;20444;-68
2021/11/08 09:28:10;;;;;;;16.20;1.55;;;;;;;;;;5006791;28;20029;-70
2021/11/08 09:30:38;;;;;;;1.63;1.20;;;;;;;;;;5008539;28;20473;-70
2021/11/08 09:33:05;;;;;;;3.20;0.95;;;;;;;;;;5007692;28;20053;-68
2021/11/08 09:35:33;;;;;;;0.10;0.10;;;;;;;;;;5007915;28;20026;-69
2021/11/08 09:38:02;;;;;;;0.10;0.10;;;;;;;;;;5008322;28;20305;-69
2021/11/08 09:40:28;;;;;;;0.52;0.52;;;;;;;;;;5008231;28;20836;-70
2021/11/08 09:42:55;;;;;;;0.00;0.00;;;;;;;;;;5008185;28;20026;-69
2021/11/08 09:45:22;;;;;;;2.05;0.57;;;;;;;;;;5007666;28;20041;-69
2021/11/08 09:47:48;;;;;;;0.15;0.15;;;;;;;;;;5008646;28;20029;-69
2021/11/08 09:50:17;;;;;;;1.55;1.20;;;;;;;;;;5008369;28;20037;-69
2021/11/08 09:52:45;;;;;;;0.10;0.10;;;;;;;;;;5006938;28;20388;-69
2021/11/08 09:55:13;;;;;;;0.00;0.00;;;;;;;;;;5008294;28;20025;-69
2021/11/08 09:57:39;;;;;;;0.20;0.20;;;;;;;;;;5007830;28;20489;-69
2021/11/08 10:00:15;;;;;;;0.35;0.35;;;;;;;;;;5007940;28;20385;-69
2021/11/08 10:02:41;;;;;;;1.75;0.63;;;;;;;;;;5010736;28;20040;-69
2021/11/08 10:05:07;;;;;;;0.08;0.08;;;;;;;;;;5012025;28;20034;-69
2021/11/08 10:07:34;;;;;;;0.00;0.00;;;;;;;;;;5009275;28;20034;-68
2021/11/08 10:10:00;;;;;;;5.18;1.27;;;;;;;;;;5011951;28;20072;-69
2021/11/08 10:12:25;;;;;;;1.45;1.13;;;;;;;;;;5011778;28;20139;-69
2021/11/08 10:14:51;;;;;;;0.40;0.40;;;;;;;;;;5012164;28;20037;-69
2021/11/08 10:17:18;;;;;;;0.30;0.30;;;;;;;;;;5012251;28;20120;-70
2021/11/08 10:19:44;;;;;;;0.70;0.38;;;;;;;;;;5011927;28;20078;-70
2021/11/08 10:22:10;;;;;;;0.98;0.90;;;;;;;;;;5012625;28;20581;-70
2021/11/08 10:24:37;;;;;;;0.00;0.00;;;;;;;;;;5011329;28;20036;-69
2021/11/08 10:27:05;;;;;;;0.13;0.13;;;;;;;;;;5011046;28;20092;-69
2021/11/08 10:29:32;;;;;;;0.00;0.00;;;;;;;;;;5011663;28;20104;-69
2021/11/08 10:31:59;;;;;;;0.10;0.10;;;;;;;;;;5011947;28;20025;-69
2021/11/08 10:34:26;;;;;;;0.00;0.00;;;;;;;;;;5011187;28;20040;-69
2021/11/08 10:37:01;;;;;;;0.00;0.00;;;;;;;;;;5011860;28;20393;-69
2021/11/08 10:39:27;;;;;;;0.00;0.00;;;;;;;;;;5011140;28;20041;-69
2021/11/08 10:41:55;;;;;;;0.43;0.30;;;;;;;;;;5011784;28;20060;-69
2021/11/08 10:44:23;;;;;;;0.00;0.00;;;;;;;;;;5011366;28;20240;-70
2021/11/08 10:46:51;;;;;;;0.00;0.00;;;;;;;;;;5011263;28;20113;-69
2021/11/08 10:49:19;;;;;;;0.40;0.40;;;;;;;;;;5011723;28;20026;-70
2021/11/08 10:51:46;;;;;;;0.57;0.28;;;;;;;;;;5010501;28;20456;-70
2021/11/08 10:54:17;;;;;;;0.05;0.05;;;;;;;;;;5011912;28;20022;-70
2021/11/08 10:56:45;;;;;;;0.00;0.00;;;;;;;;;;5010562;28;20028;-70
2021/11/08 10:59:30;;;;;;;0.25;0.25;;;;;;;;;;5011142;28;20045;-70
2021/11/08 11:01:58;;;;;;;0.15;0.15;;;;;;;;;;5011427;28;20026;-71
2021/11/08 11:04:31;;;;;;;0.28;0.28;;;;;;;;;;5010763;28;20033;-68
2021/11/08 11:06:57;;;;;;;0.00;0.00;;;;;;;;;;5010547;28;20045;-70
2021/11/08 11:09:25;;;;;;;0.45;0.45;;;;;;;;;;5010317;28;20026;-68
2021/11/08 11:12:06;;;;;;;0.50;0.50;;;;;;;;;;5010940;28;20052;-69
2021/11/08 11:14:39;;;;;;;0.80;0.77;;;;;;;;;;5009538;28;20084;-68
2021/11/08 11:17:07;;;;;;;4.00;1.33;;;;;;;;;;5009749;28;20485;-68
2021/11/08 11:19:33;;;;;;;0.43;0.43;;;;;;;;;;5010267;28;20431;-68
2021/11/08 11:22:02;;;;;;;0.00;0.00;;;;;;;;;;5010197;28;20033;-69
2021/11/08 11:24:49;;;;;;;4.50;1.55;;;;;;;;;;5010126;28;20034;-69
2021/11/08 11:27:37;;;;;;;0.00;0.00;;;;;;;;;;5010074;28;20109;-69
2021/11/08 11:30:09;;;;;;;0.00;0.00;;;;;;;;;;5010295;28;20026;-68
2021/11/08 11:32:35;;;;;;;0.10;0.10;;;;;;;;;;5010009;28;20022;-69
2021/11/08 11:35:01;;;;;;;0.00;0.00;;;;;;;;;;5010244;28;20053;-68
2021/11/08 11:37:30;;;;;;;0.10;0.10;;;;;;;;;;5009858;28;20481;-68
2021/11/08 11:40:13;;;;;;;0.98;0.70;;;;;;;;;;5010332;28;20254;-69
2021/11/08 11:42:46;;;;;;;0.28;0.28;;;;;;;;;;5009602;28;20105;-69
2021/11/08 11:45:12;;;;;;;1.95;0.70;;;;;;;;;;5006193;28;20388;-68
2021/11/08 11:47:38;;;;;;;0.20;0.20;;;;;;;;;;5009470;28;20554;-69
2021/11/08 11:50:04;;;;;;;0.10;0.10;;;;;;;;;;5009751;28;20028;-69
2021/11/08 11:52:31;;;;;;;0.43;0.38;;;;;;;;;;5009915;28;20044;-69
2021/11/08 11:54:57;;;;;;;0.10;0.10;;;;;;;;;;5009105;28;20107;-68
2021/11/08 11:57:23;;;;;;;0.00;0.00;;;;;;;;;;5008681;28;20112;-68
2021/11/08 12:00:05;;;;;;;0.00;0.00;;;;;;;;;;5010085;28;20121;-68
2021/11/08 12:02:31;;;;;;;;;;;;;;;;;;5009980;28;20125;-69
2021/11/08 12:04:57;;;;;;;0.68;0.68;;;;;;;;;;5010051;28;20381;-69
2021/11/08 12:07:23;;;;;;;0.20;0.20;;;;;;;;;;5009167;28;20106;-70
2021/11/08 12:09:49;;;;;;;0.60;0.52;;;;;;;;;;5009267;28;20053;-69
2021/11/08 12:12:25;;;;;;;9.30;0.93;;;;;;;;;;5009593;28;20049;-69
2021/11/08 12:15:08;;;;;;;0.13;0.13;;;;;;;;;;5009119;28;20050;-68
2021/11/08 12:17:40;;;;;;;0.00;0.00;;;;;;;;;;5009669;28;20052;-68
2021/11/08 12:20:07;;;;;;;0.00;0.00;;;;;;;;;;5009153;28;20049;-68
2021/11/08 12:22:33;;;;;;;0.30;0.30;;;;;;;;;;5008654;28;20488;-68
2021/11/08 12:25:00;;;;;;;1.42;1.33;;;;;;;;;;5008290;28;20030;-68
2021/11/08 12:27:40;;;;;;;0.90;0.80;;;;;;;;;;5009240;28;20551;-69
2021/11/08 12:30:26;;;;;;;0.45;0.45;;;;;;;;;;5009317;28;20026;-69
2021/11/08 12:32:57;;;;;;;0.00;0.00;;;;;;;;;;5009512;28;20057;-69
2021/11/08 12:35:24;;;;;;;0.35;0.15;;;;;;;;;;5007876;28;20105;-69
2021/11/08 12:37:50;;;;;;;0.00;0.00;;;;;;;;;;5009463;28;20076;-69
2021/11/08 12:40:17;;;;;;;0.17;0.17;;;;;;;;;;5008886;28;20030;-69
2021/11/08 12:42:44;;;;;;;0.68;0.68;;;;;;;;;;5008733;28;20022;-68
2021/11/08 12:45:16;;;;;;;0.03;0.03;;;;;;;;;;5009133;28;20083;-69
2021/11/08 12:47:42;;;;;;;0.40;0.30;;;;;;;;;;5008034;28;20724;-69
2021/11/08 12:50:10;;;;;;;0.20;0.20;;;;;;;;;;5009178;28;20041;-68
2021/11/08 12:52:40;;;;;;;0.43;0.40;;;;;;;;;;5009228;28;20036;-68
2021/11/08 12:55:16;;;;;;;0.00;0.00;;;;;;;;;;5008645;28;20022;-69
2021/11/08 12:57:53;;;;;;;1.45;0.70;;;;;;;;;;5004913;28;20038;-68
2021/11/08 13:00:23;;;;;;;2.28;2.00;;;;;;;;;;5008713;28;20022;-68
2021/11/08 13:02:54;;;;;;;0.03;0.03;;;;;;;;;;5008875;28;20099;-68
2021/11/08 13:05:40;;;;;;;0.00;0.00;;;;;;;;;;5001322;28;20124;-68
2021/11/08 13:08:25;;;;;;;0.00;0.00;;;;;;;;;;5008794;28;20076;-68
2021/11/08 13:11:11;;;;;;;0.00;0.00;;;;;;;;;;5008620;28;20022;-68
2021/11/08 13:13:56;;;;;;;0.00;0.00;;;;;;;;;;5008353;28;20022;-70
2021/11/08 13:16:31;;;;;;;0.00;0.00;;;;;;;;;;5007982;28;20022;-68
2021/11/08 13:19:01;;;;;;;1.50;1.40;;;;;;;;;;5009073;28;20050;-68
2021/11/08 13:21:27;;;;;;;0.32;0.20;;;;;;;;;;5007538;28;20038;-69
2021/11/08 13:23:55;;;;;;;0.00;0.00;;;;;;;;;;5006551;28;20029;-68
2021/11/08 13:26:21;;;;;;;19.98;0.90;;;;;;;;;;5008344;28;20156;-69
2021/11/08 13:28:47;;;;;;;0.03;0.03;;;;;;;;;;5006765;28;20061;-73
2021/11/08 13:31:13;;;;;;;0.13;0.13;;;;;;;;;;5007405;28;20026;-73
2021/11/08 13:33:40;;;;;;;0.13;0.13;;;;;;;;;;5006959;28;20424;-73
2021/11/08 13:36:06;;;;;;;0.13;0.05;;;;;;;;;;5008182;28;20026;-74
2021/11/08 13:38:34;;;;;;;1.13;1.08;;;;;;;;;;5005631;28;20473;-70
2021/11/08 13:41:04;;;;;;;0.20;0.20;;;;;;;;;;5004941;28;20032;-67
2021/11/08 13:43:36;;;;;;;0.33;0.33;;;;;;;;;;5008408;28;20164;-68
2021/11/08 13:46:07;;;;;;;1.27;1.17;;;;;;;;;;4995595;28;20642;-68
2021/11/08 13:48:35;;;;;;;0.00;0.00;;;;;;;;;;4999964;28;20026;-69
2021/11/08 13:51:05;;;;;;;1.75;0.82;;;;;;;;;;4999524;28;20474;-68
2021/11/08 13:53:33;;;;;;;0.00;0.00;;;;;;;;;;5005259;28;20037;-68
2021/11/08 13:56:01;;;;;;;0.03;0.03;;;;;;;;;;5004703;28;20077;-68
2021/11/08 13:58:27;;;;;;;0.80;0.73;;;;;;;;;;5003156;28;20068;-68
2021/11/08 14:00:53;;;;;;;0.00;0.00;;;;;;;;;;5004617;28;20496;-68
2021/11/08 14:03:19;;;;;;;0.10;0.10;;;;;;;;;;5001722;28;20026;-68
2021/11/08 14:05:46;;;;;;;0.47;0.47;;;;;;;;;;5006142;28;20030;-68
2021/11/08 14:08:12;;;;;;;0.10;0.10;;;;;;;;;;4998593;28;20034;-67
2021/11/08 14:10:38;;;;;;;0.85;0.30;;;;;;;;;;5016714;28;20670;-68
2021/11/08 14:13:11;;;;;;;0.30;0.10;;;;;;;;;;5008808;28;20033;-69
2021/11/08 14:15:37;;;;;;;0.00;0.00;;;;;;;;;;5005437;28;20104;-70
2021/11/08 14:18:03;;;;;;;0.22;0.22;;;;;;;;;;5004639;28;20089;-70
2021/11/08 14:20:29;;;;;;;0.00;0.00;;;;;;;;;;5001543;28;20053;-70
2021/11/08 14:22:55;;;;;;;0.80;0.65;;;;;;;;;;5004217;28;20342;-70
2021/11/08 14:25:21;;;;;;;0.00;0.00;;;;;;;;;;5005055;28;20096;-70
2021/11/08 14:27:46;;;;;;;1.95;0.95;;;;;;;;;;5012312;28;20436;-71
2021/11/08 14:30:20;;;;;;;3.00;1.67;;;;;;;;;;5017582;28;20053;-71
2021/11/08 14:32:47;;;;;;;0.05;0.05;;;;;;;;;;5018980;28;20026;-70
2021/11/08 14:35:17;;;;;;;0.00;0.00;;;;;;;;;;5007280;28;20026;-71
2021/11/08 14:37:49;;;;;;;0.00;0.00;;;;;;;;;;5002238;28;20026;-71
2021/11/08 14:40:17;;;;;;;;;;;;;;;;;;5008458;28;20056;-71
2021/11/08 14:42:44;;;;;;;0.03;0.03;;;;;;;;;;5007821;28;19905;-72
2021/11/08 14:45:21;;;;;;;14.63;0.30;;;;;;;;;;5005803;28;20140;-73
2021/11/08 14:47:54;;;;;;;3.55;0.50;;;;;;;;;;5008902;28;20030;-71
2021/11/08 14:50:26;;;;;;;0.00;0.00;;;;;;;;;;5011034;28;20026;-71
2021/11/08 14:52:52;;;;;;;0.15;0.15;;;;;;;;;;5010807;28;20041;-70
2021/11/08 14:55:18;;;;;;;0.10;0.10;;;;;;;;;;5012925;28;20120;-71
2021/11/08 14:57:45;;;;;;;0.80;0.68;;;;;;;;;;5010134;28;20133;-72
2021/11/08 15:00:13;;;;;;;0.30;0.30;;;;;;;;;;5010026;28;20049;-72
2021/11/08 15:02:39;;;;;;;0.08;0.08;;;;;;;;;;5011956;28;20121;-71
2021/11/08 15:05:10;;;;;;;0.00;0.00;;;;;;;;;;5010115;28;20080;-71
2021/11/08 15:07:38;;;;;;;0.00;0.00;;;;;;;;;;5016093;28;20049;-71
2021/11/08 15:10:09;;;;;;;0.00;0.00;;;;;;;;;;5011093;28;20076;-71
2021/11/08 15:12:39;;;;;;;0.10;0.10;;;;;;;;;;5013119;28;20021;-71
2021/11/08 15:15:13;;;;;;;0.88;0.88;;;;;;;;;;5009852;28;20029;-72
2021/11/08 15:17:43;;;;;;;0.80;0.52;;;;;;;;;;5011298;28;20069;-73
2021/11/08 15:20:09;;;;;;;0.22;0.22;;;;;;;;;;5008873;28;20046;-73
2021/11/08 15:22:36;;;;;;;1.52;0.73;;;;;;;;;;5006293;28;20081;-72
2021/11/08 15:25:12;;;;;;;0.00;0.00;;;;;;;;;;5009526;28;20025;-77
2021/11/08 15:27:40;;;;;;;0.10;0.10;;;;;;;;;;5007385;28;20030;-73
2021/11/08 15:30:07;;;;;;;0.00;0.00;;;;;;;;;;5009635;28;20505;-73
2021/11/08 15:32:33;;;;;;;1.38;1.02;;;;;;;;;;5010799;28;20052;-73
2021/11/08 15:35:12;;;;;;;1.27;0.65;;;;;;;;;;5009929;28;20037;-73
2021/11/08 15:37:52;;;;;;;6.93;0.77;;;;;;;;;;5012560;28;20034;-72
2021/11/08 15:40:18;;;;;;;0.47;0.47;;;;;;;;;;5004129;28;20029;-72
2021/11/08 15:42:44;;;;;;;0.00;0.00;;;;;;;;;;5008783;28;20022;-72
2021/11/08 15:45:10;;;;;;;3.42;0.75;;;;;;;;;;5009282;28;20056;-72
2021/11/08 15:47:36;;;;;;;0.03;0.03;;;;;;;;;;5009188;28;20121;-72
2021/11/08 15:50:03;;;;;;;1.38;0.60;;;;;;;;;;5008274;28;20045;-72
2021/11/08 15:52:32;;;;;;;7.47;0.38;;;;;;;;;;5009759;28;20120;-72
2021/11/08 15:54:58;;;;;;;0.30;0.30;;;;;;;;;;5007728;28;20018;-72
2021/11/08 15:57:23;;;;;;;0.00;0.00;;;;;;;;;;5008120;28;20053;-72
2021/11/08 15:59:52;;;;;;;0.00;0.00;;;;;;;;;;5006240;28;20113;-72
2021/11/08 16:02:19;;;;;;;1.20;1.10;;;;;;;;;;5008993;28;20080;-72
2021/11/08 16:04:45;;;;;;;1.20;0.95;;;;;;;;;;5003212;28;20030;-72
2021/11/08 16:07:10;;;;;;;0.10;0.10;;;;;;;;;;5009310;28;20042;-72
2021/11/08 16:09:36;;;;;;;0.10;0.10;;;;;;;;;;5009322;28;20022;-72
2021/11/08 16:12:02;;;;;;;0.73;0.70;;;;;;;;;;5014224;28;20036;-72
2021/11/08 16:14:28;;;;;;;0.10;0.10;;;;;;;;;;5009768;28;20061;-72
2021/11/08 16:16:54;;;;;;;0.22;0.22;;;;;;;;;;5002778;28;20649;-72
2021/11/08 16:19:20;;;;;;;0.60;0.35;;;;;;;;;;5007484;28;20026;-72
2021/11/08 16:21:47;;;;;;;0.35;0.35;;;;;;;;;;5006707;28;20073;-72
2021/11/08 16:24:14;;;;;;;0.20;0.20;;;;;;;;;;5005208;28;20014;-73
2021/11/08 16:26:40;;;;;;;0.10;0.10;;;;;;;;;;5004570;28;20029;-72
2021/11/08 16:29:07;;;;;;;0.00;0.00;;;;;;;;;;5005082;28;20046;-72